Time;durP1;ratioP1;P1;durP2;ratioP2;P2;SDS_P1;SDS_P2;PMS_P1;PMS_P2;Temp;Humidity;BMP_temperature;BMP_pressure;BME280_temperature;BME280_humidity;BME280_pressure;Samples;Min_cycle;Max_cycle;Signal;HPM_P1;HPM_P2
2023/06/18 00:00:11;;;;;;;;;8.00;6.33;;;;;;;;4958945;28;45475;-87
2023/06/18 00:02:36;;;;;;;;;6.50;5.25;;;;;;;;4958643;28;45461;-87
2023/06/18 00:05:01;;;;;;;;;6.67;6.67;;;;;;;;4958710;28;45289;-87
2023/06/18 00:07:26;;;;;;;;;7.33;6.33;;;;;;;;4957606;28;45463;-88
2023/06/18 00:09:52;;;;;;;;;10.00;7.33;;;;;;;;4958655;28;45578;-88
2023/06/18 00:12:17;;;;;;;;;6.67;6.67;;;;;;;;4957633;28;47208;-87
2023/06/18 00:14:42;;;;;;;;;7.00;7.00;;;;;;;;4958699;28;45466;-88
2023/06/18 00:17:07;;;;;;;;;10.33;5.00;;;;;;;;4958765;28;45472;-87
2023/06/18 00:19:32;;;;;;;;;8.67;8.33;;;;;;;;4958726;28;45402;-87
2023/06/18 00:21:59;;;;;;;;;9.33;6.00;;;;;;;;4958159;28;45386;-87
2023/06/18 00:24:24;;;;;;;;;6.00;5.75;;;;;;;;4958969;28;45903;-86
2023/06/18 00:26:49;;;;;;;;;5.00;4.50;;;;;;;;4958747;28;45378;-87
2023/06/18 00:29:15;;;;;;;;;6.25;6.00;;;;;;;;4958595;28;45361;-87
2023/06/18 00:31:40;;;;;;;;;7.00;7.00;;;;;;;;4958400;28;45330;-85
2023/06/18 00:34:06;;;;;;;;;6.00;6.00;;;;;;;;4958475;28;45420;-86
2023/06/18 00:36:32;;;;;;;;;8.50;6.00;;;;;;;;4958615;28;45317;-86
2023/06/18 00:38:57;;;;;;;;;6.25;5.75;;;;;;;;4956810;28;45478;-85
2023/06/18 00:41:24;;;;;;;;;8.25;7.00;;;;;;;;4958025;28;46401;-86
2023/06/18 00:43:50;;;;;;;;;7.50;6.00;;;;;;;;4958426;28;45701;-85
2023/06/18 00:46:17;;;;;;;;;8.50;7.25;;;;;;;;4958391;28;45205;-86
2023/06/18 00:48:42;;;;;;;;;7.00;7.00;;;;;;;;4958300;28;45296;-87
2023/06/18 00:51:07;;;;;;;;;10.33;8.67;;;;;;;;4958318;28;45383;-86
2023/06/18 00:53:33;;;;;;;;;10.25;7.50;;;;;;;;4957653;28;45288;-86
2023/06/18 00:55:58;;;;;;;;;8.00;6.00;;;;;;;;4957095;28;45673;-86
2023/06/18 00:58:25;;;;;;;;;7.00;7.00;;;;;;;;4958196;28;45410;-87
2023/06/18 01:23:49;;;;;;;;;14.00;10.50;;;;;;;;4975286;28;48256;-93
2023/06/18 01:26:15;;;;;;;;;12.00;10.50;;;;;;;;4977468;28;45978;-90
2023/06/18 01:28:41;;;;;;;;;15.50;12.00;;;;;;;;4978001;28;45347;-90
2023/06/18 01:31:06;;;;;;;;;9.25;7.00;;;;;;;;4977710;28;45526;-89
2023/06/18 01:34:08;;;;;;;;;;;;;;;;;;;;;
2023/06/18 01:36:59;;;;;;;;;13.50;9.75;;;;;;;;4976739;28;72893;-92
2023/06/18 01:43:08;;;;;;;;;;;;;;;;;;;;;
2023/06/18 01:49:03;;;;;;;;;15.50;10.50;;;;;;;;4954816;22;45693;-89
2023/06/18 01:51:30;;;;;;;;;14.25;11.50;;;;;;;;4957301;28;45526;-89
2023/06/18 01:53:56;;;;;;;;;17.25;12.25;;;;;;;;4957417;28;45454;-89
2023/06/18 01:56:22;;;;;;;;;12.75;10.00;;;;;;;;4940435;28;47004;-90
2023/06/18 01:58:47;;;;;;;;;14.00;8.75;;;;;;;;4957301;28;45397;-87
2023/06/18 02:01:12;;;;;;;;;11.00;8.67;;;;;;;;4939914;28;45310;-89
2023/06/18 02:03:38;;;;;;;;;11.50;10.25;;;;;;;;4957533;28;45310;-90
2023/06/18 02:06:03;;;;;;;;;12.75;9.50;;;;;;;;4957170;28;45269;-89
2023/06/18 02:08:29;;;;;;;;;15.00;10.00;;;;;;;;4956997;28;45331;-88
2023/06/18 02:10:54;;;;;;;;;15.00;9.25;;;;;;;;4957209;28;45376;-88
2023/06/18 02:13:19;;;;;;;;;9.33;7.33;;;;;;;;4957035;28;45431;-89
2023/06/18 02:15:45;;;;;;;;;14.00;10.00;;;;;;;;4955997;28;47823;-89
2023/06/18 02:18:11;;;;;;;;;10.75;8.00;;;;;;;;4957287;28;45613;-89
2023/06/18 02:20:37;;;;;;;;;9.00;6.75;;;;;;;;4956658;28;45284;-88
2023/06/18 02:23:03;;;;;;;;;6.25;5.50;;;;;;;;4957111;28;45553;-88
2023/06/18 02:25:32;;;;;;;;;6.00;5.00;;;;;;;;4955771;28;47497;-88
2023/06/18 02:28:00;;;;;;;;;6.75;6.00;;;;;;;;4956735;28;45940;-88
2023/06/18 02:30:28;;;;;;;;;9.00;6.00;;;;;;;;4957136;28;45461;-88
2023/06/18 02:32:54;;;;;;;;;7.75;5.00;;;;;;;;4957083;28;45544;-89
2023/06/18 02:35:19;;;;;;;;;3.00;2.00;;;;;;;;4955515;28;47240;-88
2023/06/18 02:37:44;;;;;;;;;4.50;4.00;;;;;;;;4956855;28;45537;-87
2023/06/18 02:40:11;;;;;;;;;1.67;1.67;;;;;;;;4956873;28;45358;-88
2023/06/18 02:42:36;;;;;;;;;5.75;3.00;;;;;;;;4956693;28;45373;-88
2023/06/18 02:45:02;;;;;;;;;2.75;2.00;;;;;;;;4956941;28;45517;-89
2023/06/18 02:47:28;;;;;;;;;2.75;2.00;;;;;;;;4956866;28;45440;-88
2023/06/18 02:49:53;;;;;;;;;1.67;1.67;;;;;;;;4955196;28;45455;-88
2023/06/18 02:52:18;;;;;;;;;1.67;1.67;;;;;;;;4956764;28;45485;-88
2023/06/18 02:54:44;;;;;;;;;4.00;3.00;;;;;;;;4956401;28;46533;-88
2023/06/18 02:57:09;;;;;;;;;2.75;2.25;;;;;;;;4956518;28;45334;-87
2023/06/18 02:59:34;;;;;;;;;6.00;2.25;;;;;;;;4956451;28;45449;-87
2023/06/18 03:02:01;;;;;;;;;6.33;3.67;;;;;;;;4956569;28;45359;-88
2023/06/18 03:04:26;;;;;;;;;3.00;3.00;;;;;;;;4955918;28;46270;-88
2023/06/18 03:06:51;;;;;;;;;4.50;2.25;;;;;;;;4956622;28;45410;-88
2023/06/18 03:09:16;;;;;;;;;6.00;4.33;;;;;;;;4955430;28;45465;-87
2023/06/18 03:11:42;;;;;;;;;5.00;3.75;;;;;;;;4955134;28;45602;-88
2023/06/18 03:14:07;;;;;;;;;3.50;3.50;;;;;;;;4954880;28;48291;-88
2023/06/18 03:16:33;;;;;;;;;8.33;3.00;;;;;;;;4956321;28;45419;-88
2023/06/18 03:18:59;;;;;;;;;9.00;5.25;;;;;;;;4956022;28;45445;-88
2023/06/18 03:21:24;;;;;;;;;5.67;3.67;;;;;;;;4956402;28;45429;-88
2023/06/18 03:23:49;;;;;;;;;5.33;4.33;;;;;;;;4956167;28;46446;-91
2023/06/18 03:26:15;;;;;;;;;5.50;3.00;;;;;;;;4956683;28;45447;-88
2023/06/18 03:28:40;;;;;;;;;3.00;3.00;;;;;;;;4956418;28;45382;-87
2023/06/18 03:31:06;;;;;;;;;7.25;3.00;;;;;;;;4956126;28;45240;-87
2023/06/18 03:33:31;;;;;;;;;4.00;3.50;;;;;;;;4956050;28;45359;-88
2023/06/18 03:36:00;;;;;;;;;3.00;3.00;;;;;;;;4956158;28;45361;-88
2023/06/18 03:38:25;;;;;;;;;2.75;2.75;;;;;;;;4956201;28;45351;-88
2023/06/18 03:40:51;;;;;;;;;4.75;2.75;;;;;;;;4948420;28;45666;-89
2023/06/18 03:43:16;;;;;;;;;4.00;2.33;;;;;;;;4958942;28;46504;-89
2023/06/18 03:45:41;;;;;;;;;2.67;1.00;;;;;;;;4959421;28;45537;-89
2023/06/18 03:48:06;;;;;;;;;1.67;1.00;;;;;;;;4941403;28;45503;-89
2023/06/18 03:50:32;;;;;;;;;1.75;1.75;;;;;;;;4959152;28;45584;-89
2023/06/18 03:52:57;;;;;;;;;5.00;1.00;;;;;;;;4941871;28;47235;-89
2023/06/18 03:55:22;;;;;;;;;0.67;0.67;;;;;;;;4959299;28;45556;-89
2023/06/18 03:57:47;;;;;;;;;1.00;0.00;;;;;;;;4959418;28;45447;-89
2023/06/18 04:00:13;;;;;;;;;2.33;1.67;;;;;;;;4959423;28;45437;-89
2023/06/18 04:02:38;;;;;;;;;1.50;0.75;;;;;;;;4941382;28;47645;-89
2023/06/18 04:05:03;;;;;;;;;1.67;1.33;;;;;;;;4959108;28;45539;-90
2023/06/18 04:07:29;;;;;;;;;1.75;1.00;;;;;;;;4959075;28;45442;-88
2023/06/18 04:09:54;;;;;;;;;3.00;3.00;;;;;;;;4959052;28;45479;-89
2023/06/18 04:12:19;;;;;;;;;1.00;0.67;;;;;;;;4958775;28;45380;-88
2023/06/18 04:14:44;;;;;;;;;0.67;0.67;;;;;;;;4958697;28;45336;-88
2023/06/18 04:17:10;;;;;;;;;1.00;1.00;;;;;;;;4958557;28;45305;-88
2023/06/18 04:19:35;;;;;;;;;2.67;0.67;;;;;;;;4957916;28;45459;-91
2023/06/18 04:22:00;;;;;;;;;4.00;2.00;;;;;;;;4959381;28;46199;-90
2023/06/18 04:24:25;;;;;;;;;2.00;2.00;;;;;;;;4957762;28;45511;-88
2023/06/18 04:26:50;;;;;;;;;2.00;2.00;;;;;;;;4959021;28;45396;-88
2023/06/18 04:29:16;;;;;;;;;2.00;1.00;;;;;;;;4958581;28;45243;-88
2023/06/18 04:31:41;;;;;;;;;5.00;1.67;;;;;;;;4956977;28;48247;-88
2023/06/18 04:34:06;;;;;;;;;2.00;2.00;;;;;;;;4958575;28;45335;-88
2023/06/18 04:36:32;;;;;;;;;1.25;0.25;;;;;;;;4941253;28;45414;-88
2023/06/18 04:38:57;;;;;;;;;2.00;1.75;;;;;;;;4958714;28;45522;-89
2023/06/18 04:41:23;;;;;;;;;0.67;0.67;;;;;;;;4958667;28;46147;-89
2023/06/18 04:43:48;;;;;;;;;2.67;1.67;;;;;;;;4958915;28;45296;-90
2023/06/18 04:46:13;;;;;;;;;1.25;1.25;;;;;;;;4958458;28;45283;-90
2023/06/18 04:48:39;;;;;;;;;3.00;1.33;;;;;;;;4941387;28;45315;-89
2023/06/18 04:51:05;;;;;;;;;2.00;1.00;;;;;;;;4939816;28;47337;-90
2023/06/18 04:53:30;;;;;;;;;0.75;0.75;;;;;;;;4958880;28;45235;-90
2023/06/18 04:55:55;;;;;;;;;2.33;1.67;;;;;;;;4941227;28;45439;-89
2023/06/18 04:58:20;;;;;;;;;1.50;1.50;;;;;;;;4958755;28;45600;-90
2023/06/18 05:00:46;;;;;;;;;0.75;0.75;;;;;;;;4940646;28;48351;-89
2023/06/18 05:03:12;;;;;;;;;2.00;1.75;;;;;;;;4958054;28;45409;-88
2023/06/18 05:05:37;;;;;;;;;1.50;1.25;;;;;;;;4958261;28;45424;-88
2023/06/18 05:08:02;;;;;;;;;1.67;0.67;;;;;;;;4958154;28;45388;-88
2023/06/18 05:10:27;;;;;;;;;2.75;0.75;;;;;;;;4958069;28;45465;-89
2023/06/18 05:12:53;;;;;;;;;1.50;1.25;;;;;;;;4957927;28;45524;-88
2023/06/18 05:15:18;;;;;;;;;3.33;2.00;;;;;;;;4957604;28;45455;-89
2023/06/18 05:17:43;;;;;;;;;2.25;2.00;;;;;;;;4956820;28;45502;-88
2023/06/18 05:20:09;;;;;;;;;0.67;0.67;;;;;;;;4957763;28;45592;-88
2023/06/18 05:22:34;;;;;;;;;2.00;1.50;;;;;;;;4957656;28;45650;-88
2023/06/18 05:24:59;;;;;;;;;2.75;0.75;;;;;;;;4957100;28;45389;-88
2023/06/18 05:27:30;;;;;;;;;2.67;1.67;;;;;;;;4957745;28;45455;-88
2023/06/18 05:29:56;;;;;;;;;4.75;2.00;;;;;;;;4957096;28;46526;-89
2023/06/18 05:32:21;;;;;;;;;2.33;2.00;;;;;;;;4957773;28;45492;-89
2023/06/18 05:34:47;;;;;;;;;3.00;1.00;;;;;;;;4941948;28;45418;-88
2023/06/18 05:37:12;;;;;;;;;2.00;2.00;;;;;;;;4957822;28;45446;-88
2023/06/18 05:39:37;;;;;;;;;3.00;2.00;;;;;;;;4957577;28;46052;-88
2023/06/18 05:45:08;;;;;;;;;3.25;1.50;;;;;;;;4948304;28;45408;-89
2023/06/18 05:47:33;;;;;;;;;3.75;2.50;;;;;;;;4940466;28;45394;-88
2023/06/18 05:49:59;;;;;;;;;2.33;2.33;;;;;;;;4957151;28;46315;-90
2023/06/18 05:52:24;;;;;;;;;2.75;2.00;;;;;;;;4957453;28;45481;-89
2023/06/18 05:54:49;;;;;;;;;3.67;1.00;;;;;;;;4940602;28;45442;-89
2023/06/18 05:57:15;;;;;;;;;2.25;2.00;;;;;;;;4957278;28;45423;-88
2023/06/18 05:59:40;;;;;;;;;2.75;1.50;;;;;;;;4956965;28;45456;-89
2023/06/18 06:02:05;;;;;;;;;2.25;1.75;;;;;;;;4956686;28;45440;-89
2023/06/18 06:04:31;;;;;;;;;1.00;1.00;;;;;;;;4940608;28;45386;-89
2023/06/18 06:06:56;;;;;;;;;3.00;2.00;;;;;;;;4940317;28;45456;-90
2023/06/18 06:09:31;;;;;;;;;3.00;1.25;;;;;;;;4957521;28;45418;-92
2023/06/18 06:12:02;;;;;;;;;3.00;2.00;;;;;;;;4956831;28;45741;-92
2023/06/18 06:14:27;;;;;;;;;5.25;2.75;;;;;;;;4957218;28;45349;-87
2023/06/18 06:16:57;;;;;;;;;4.00;2.67;;;;;;;;4957342;28;45420;-87
2023/06/18 06:19:22;;;;;;;;;3.75;2.50;;;;;;;;4956630;28;45389;-87
2023/06/18 06:21:48;;;;;;;;;5.00;3.00;;;;;;;;4956288;28;45330;-87
2023/06/18 06:24:13;;;;;;;;;1.50;1.50;;;;;;;;4948730;28;45334;-88
2023/06/18 06:26:38;;;;;;;;;2.75;1.50;;;;;;;;4937272;28;45257;-88
2023/06/18 06:29:04;;;;;;;;;3.67;2.00;;;;;;;;4922457;28;47240;-90
2023/06/18 06:31:29;;;;;;;;;3.00;2.00;;;;;;;;4937228;28;45381;-89
2023/06/18 06:33:55;;;;;;;;;5.50;2.75;;;;;;;;4941833;28;45454;-89
2023/06/18 06:36:20;;;;;;;;;2.00;2.00;;;;;;;;4943685;28;45550;-90
2023/06/18 06:38:45;;;;;;;;;3.00;2.00;;;;;;;;4929834;28;47165;-89
2023/06/18 06:41:10;;;;;;;;;2.33;2.33;;;;;;;;4946974;28;45514;-89
2023/06/18 06:43:36;;;;;;;;;1.25;1.00;;;;;;;;4945520;28;45430;-85
2023/06/18 06:46:01;;;;;;;;;5.67;1.00;;;;;;;;4947433;28;45383;-84
2023/06/18 06:48:26;;;;;;;;;1.00;1.00;;;;;;;;4954229;28;45551;-86
2023/06/18 06:50:52;;;;;;;;;3.00;2.00;;;;;;;;4956144;28;45327;-86
2023/06/18 06:53:17;;;;;;;;;1.50;1.00;;;;;;;;4956473;28;45453;-86
2023/06/18 06:55:42;;;;;;;;;1.67;1.67;;;;;;;;4956271;28;45638;-85
2023/06/18 06:58:07;;;;;;;;;1.00;1.00;;;;;;;;4956576;28;45456;-85
2023/06/18 07:00:32;;;;;;;;;2.00;2.00;;;;;;;;4956448;28;45565;-86
2023/06/18 07:02:57;;;;;;;;;2.33;2.00;;;;;;;;4956467;28;45468;-86
2023/06/18 07:05:23;;;;;;;;;2.00;2.00;;;;;;;;4956520;28;45541;-85
2023/06/18 07:07:48;;;;;;;;;2.67;2.67;;;;;;;;4956138;28;47076;-86
2023/06/18 07:10:13;;;;;;;;;4.67;1.00;;;;;;;;4956050;28;45314;-86
2023/06/18 07:12:38;;;;;;;;;3.33;2.00;;;;;;;;4956371;28;45464;-86
2023/06/18 07:15:04;;;;;;;;;1.00;1.00;;;;;;;;4958746;28;45444;-86
2023/06/18 07:17:30;;;;;;;;;2.00;2.00;;;;;;;;4959542;28;47483;-86
2023/06/18 07:19:55;;;;;;;;;4.33;3.00;;;;;;;;4959577;28;45537;-86
2023/06/18 07:22:20;;;;;;;;;6.67;5.00;;;;;;;;4958650;28;45622;-86
2023/06/18 07:24:45;;;;;;;;;5.00;3.25;;;;;;;;4958983;28;45548;-88
2023/06/18 07:27:11;;;;;;;;;7.33;3.00;;;;;;;;4942370;28;48059;-88
2023/06/18 07:29:36;;;;;;;;;6.00;5.00;;;;;;;;4952285;28;45366;-87
2023/06/18 07:32:07;;;;;;;;;7.00;6.00;;;;;;;;4937666;28;45558;-90
2023/06/18 07:34:34;;;;;;;;;6.75;4.50;;;;;;;;4955623;28;45466;-88
2023/06/18 07:36:59;;;;;;;;;5.25;3.00;;;;;;;;4941833;28;47297;-85
2023/06/18 07:39:26;;;;;;;;;4.50;3.00;;;;;;;;4958886;28;45378;-88
2023/06/18 07:41:51;;;;;;;;;3.50;3.00;;;;;;;;4946881;28;45397;-85
2023/06/18 07:44:16;;;;;;;;;5.00;3.33;;;;;;;;4940510;28;45440;-86
2023/06/18 07:46:42;;;;;;;;;4.00;3.00;;;;;;;;4940337;28;45911;-86
2023/06/18 07:49:08;;;;;;;;;5.00;2.75;;;;;;;;4939590;28;45334;-86
2023/06/18 07:51:33;;;;;;;;;3.00;3.00;;;;;;;;4940208;28;45237;-89
2023/06/18 07:53:58;;;;;;;;;4.00;3.50;;;;;;;;4922704;28;45333;-87
2023/06/18 07:56:26;;;;;;;;;4.00;2.00;;;;;;;;4939627;28;45995;-83
2023/06/18 07:58:51;;;;;;;;;5.25;3.75;;;;;;;;4953690;28;45507;-87
2023/06/18 08:01:16;;;;;;;;;5.50;2.50;;;;;;;;4956883;28;45582;-86
2023/06/18 08:03:42;;;;;;;;;3.67;3.33;;;;;;;;4952675;28;45759;-84
2023/06/18 08:06:07;;;;;;;;;5.00;2.67;;;;;;;;4949483;28;46824;-87
2023/06/18 08:08:34;;;;;;;;;3.00;3.00;;;;;;;;4952156;28;45320;-92
2023/06/18 08:11:00;;;;;;;;;3.00;3.00;;;;;;;;4949571;28;45490;-85
2023/06/18 08:13:25;;;;;;;;;4.00;3.25;;;;;;;;4950082;28;45505;-85
2023/06/18 08:15:54;;;;;;;;;4.00;4.00;;;;;;;;4947231;28;46128;-90
2023/06/18 08:18:19;;;;;;;;;8.00;4.00;;;;;;;;4939530;28;45696;-89
2023/06/18 08:20:44;;;;;;;;;3.25;3.25;;;;;;;;4953702;28;45536;-86
2023/06/18 08:23:09;;;;;;;;;4.00;4.00;;;;;;;;4946198;28;45413;-84
2023/06/18 08:25:38;;;;;;;;;3.00;3.00;;;;;;;;4957979;28;45366;-89
2023/06/18 08:28:03;;;;;;;;;4.00;4.00;;;;;;;;4957791;28;45856;-85
2023/06/18 08:30:29;;;;;;;;;3.50;3.50;;;;;;;;4940728;28;45315;-84
2023/06/18 08:32:57;;;;;;;;;6.67;3.00;;;;;;;;4958209;28;45486;-87
2023/06/18 08:35:22;;;;;;;;;3.75;3.25;;;;;;;;4954233;28;45282;-86
2023/06/18 08:37:51;;;;;;;;;6.33;4.00;;;;;;;;4958496;28;45339;-88
2023/06/18 08:40:23;;;;;;;;;6.25;4.50;;;;;;;;4958367;28;45445;-88
2023/06/18 08:42:55;;;;;;;;;6.25;3.00;;;;;;;;4958574;28;45513;-89
2023/06/18 08:45:21;;;;;;;;;4.00;4.00;;;;;;;;4958108;28;46044;-90
2023/06/18 08:47:48;;;;;;;;;7.00;4.00;;;;;;;;4959132;28;45293;-90
2023/06/18 08:50:36;;;;;;;;;7.25;4.00;;;;;;;;4958378;28;45290;-89
2023/06/18 08:53:05;;;;;;;;;7.00;5.00;;;;;;;;4958444;28;45545;-87
2023/06/18 08:55:30;;;;;;;;;7.00;5.00;;;;;;;;4951222;28;47025;-87
2023/06/18 08:58:21;;;;;;;;;6.25;5.25;;;;;;;;4958552;28;45375;-91
2023/06/18 09:00:51;;;;;;;;;5.75;3.50;;;;;;;;4958965;28;45378;-88
2023/06/18 09:03:16;;;;;;;;;9.50;6.50;;;;;;;;4958184;28;45417;-90
2023/06/18 09:05:41;;;;;;;;;5.50;4.00;;;;;;;;4958029;28;46065;-88
2023/06/18 09:08:09;;;;;;;;;4.00;4.00;;;;;;;;4958461;28;45316;-90
2023/06/18 09:10:35;;;;;;;;;6.00;3.00;;;;;;;;4956068;28;45603;-89
2023/06/18 09:13:00;;;;;;;;;4.25;4.25;;;;;;;;4928377;28;45697;-91
2023/06/18 09:15:29;;;;;;;;;4.00;4.00;;;;;;;;4955841;28;46757;-91
2023/06/18 09:20:39;;;;;;;;;4.75;3.75;;;;;;;;4952260;28;45567;-86
2023/06/18 09:23:10;;;;;;;;;5.00;2.00;;;;;;;;4956757;28;45410;-89
2023/06/18 09:25:35;;;;;;;;;3.75;2.75;;;;;;;;4952578;28;46154;-95
2023/06/18 09:28:01;;;;;;;;;4.50;3.00;;;;;;;;4952750;28;45197;-95
2023/06/18 09:30:29;;;;;;;;;4.50;4.50;;;;;;;;4959070;28;45415;-91
2023/06/18 09:32:57;;;;;;;;;4.50;3.25;;;;;;;;4957572;28;45395;-91
2023/06/18 09:35:23;;;;;;;;;3.25;3.25;;;;;;;;4948625;28;46465;-88
2023/06/18 09:37:48;;;;;;;;;3.50;3.00;;;;;;;;4937871;28;45360;-91
2023/06/18 09:40:17;;;;;;;;;4.75;2.50;;;;;;;;4954657;28;45409;-92
2023/06/18 09:42:43;;;;;;;;;3.75;3.00;;;;;;;;4922267;28;45346;-93
2023/06/18 09:45:09;;;;;;;;;6.50;3.50;;;;;;;;4941540;28;46275;-92
2023/06/18 09:47:39;;;;;;;;;3.25;3.25;;;;;;;;4948266;28;45313;-90
2023/06/18 09:50:07;;;;;;;;;7.25;4.50;;;;;;;;4921527;28;45564;-91
2023/06/18 09:52:40;;;;;;;;;3.75;3.00;;;;;;;;4938429;28;45516;-86
2023/06/18 09:55:24;;;;;;;;;8.00;5.25;;;;;;;;4933683;28;47248;-87
2023/06/18 09:57:49;;;;;;;;;4.00;3.25;;;;;;;;4928406;28;45436;-90
2023/06/18 10:00:15;;;;;;;;;3.00;2.00;;;;;;;;4945071;28;45395;-91
2023/06/18 10:02:40;;;;;;;;;3.75;2.00;;;;;;;;4945601;28;45441;-94
2023/06/18 10:05:06;;;;;;;;;2.00;1.00;;;;;;;;4932870;28;47381;-90
2023/06/18 10:07:34;;;;;;;;;3.00;3.00;;;;;;;;4920747;28;45418;-89
2023/06/18 10:10:16;;;;;;;;;;;;;;;;;;;;;
2023/06/18 10:12:43;;;;;;;;;5.00;4.00;;;;;;;;4954560;28;70271;-89
2023/06/18 10:15:10;;;;;;;;;6.00;4.00;;;;;;;;4949842;28;45624;-86
2023/06/18 10:17:37;;;;;;;;;5.25;4.75;;;;;;;;4948869;28;45669;-87
2023/06/18 10:20:03;;;;;;;;;6.75;4.75;;;;;;;;4955570;28;45677;-87
2023/06/18 10:22:52;;;;;;;;;7.00;4.00;;;;;;;;4939164;28;45493;-89
2023/06/18 10:25:17;;;;;;;;;6.25;5.00;;;;;;;;4951549;28;45578;-83
2023/06/18 10:27:43;;;;;;;;;10.50;5.00;;;;;;;;4947137;28;45391;-84
2023/06/18 10:30:08;;;;;;;;;8.75;6.00;;;;;;;;4941507;28;45331;-84
2023/06/18 10:32:35;;;;;;;;;4.75;4.00;;;;;;;;4946329;28;45426;-87
2023/06/18 10:35:02;;;;;;;;;5.75;4.75;;;;;;;;4935291;28;46482;-87
2023/06/18 10:37:30;;;;;;;;;5.00;4.00;;;;;;;;4946383;28;45408;-85
2023/06/18 10:39:56;;;;;;;;;9.25;5.75;;;;;;;;4955294;28;45420;-82
2023/06/18 10:42:22;;;;;;;;;5.00;4.00;;;;;;;;4943263;28;45336;-82
2023/06/18 10:44:47;;;;;;;;;6.75;5.50;;;;;;;;4955399;28;46665;-85
2023/06/18 10:47:18;;;;;;;;;6.33;5.67;;;;;;;;4954780;28;45650;-85
2023/06/18 10:50:03;;;;;;;;;7.50;6.25;;;;;;;;4947742;28;45557;-82
2023/06/18 10:52:31;;;;;;;;;9.00;6.00;;;;;;;;4940014;28;45403;-81
2023/06/18 10:55:08;;;;;;;;;6.75;6.75;;;;;;;;4952003;28;45629;-81
2023/06/18 10:57:46;;;;;;;;;6.75;5.75;;;;;;;;4939971;28;45784;-81
2023/06/18 11:00:16;;;;;;;;;7.50;5.50;;;;;;;;4942268;28;45375;-83
2023/06/18 11:02:41;;;;;;;;;6.00;6.00;;;;;;;;4939416;28;45688;-84
2023/06/18 11:05:07;;;;;;;;;10.50;8.00;;;;;;;;4939229;28;46331;-88
2023/06/18 11:07:32;;;;;;;;;7.75;6.25;;;;;;;;4939665;28;45401;-78
2023/06/18 11:09:58;;;;;;;;;8.25;6.50;;;;;;;;4945547;28;45447;-82
2023/06/18 11:12:26;;;;;;;;;7.50;6.50;;;;;;;;4942274;28;45482;-82
2023/06/18 11:15:04;;;;;;;;;12.50;8.00;;;;;;;;4952634;28;47104;-78
2023/06/18 11:17:29;;;;;;;;;9.50;5.50;;;;;;;;4939269;28;45791;-79
2023/06/18 11:19:54;;;;;;;;;9.50;6.50;;;;;;;;4939736;28;45641;-82
2023/06/18 11:22:20;;;;;;;;;12.75;8.25;;;;;;;;4944178;28;45446;-84
2023/06/18 11:24:45;;;;;;;;;7.00;6.75;;;;;;;;4946269;28;45382;-84
2023/06/18 11:27:11;;;;;;;;;8.75;7.25;;;;;;;;4942050;28;45427;-87
2023/06/18 11:29:43;;;;;;;;;7.25;5.25;;;;;;;;4952850;28;45417;-92
2023/06/18 11:32:14;;;;;;;;;10.50;8.00;;;;;;;;4939626;28;45842;-88
2023/06/18 11:34:41;;;;;;;;;8.00;6.50;;;;;;;;4939779;28;46240;-89
2023/06/18 11:37:06;;;;;;;;;8.75;5.00;;;;;;;;4923294;28;46071;-88
2023/06/18 11:39:34;;;;;;;;;9.75;6.00;;;;;;;;4958130;28;45224;-87
2023/06/18 11:42:11;;;;;;;;;7.50;6.00;;;;;;;;4958770;28;45548;-85
2023/06/18 11:44:44;;;;;;;;;7.50;5.25;;;;;;;;4954961;28;47052;-89
2023/06/18 11:47:10;;;;;;;;;10.75;9.00;;;;;;;;4926524;28;45864;-86
2023/06/18 11:49:41;;;;;;;;;8.25;6.25;;;;;;;;4956923;28;45383;-89
2023/06/18 11:52:12;;;;;;;;;8.75;6.50;;;;;;;;4957141;28;45492;-89
2023/06/18 11:54:41;;;;;;;;;8.00;7.00;;;;;;;;4956930;28;45513;-88
2023/06/18 11:57:07;;;;;;;;;10.25;6.00;;;;;;;;4956883;28;45339;-88
2023/06/18 11:59:35;;;;;;;;;5.25;4.25;;;;;;;;4947815;28;45378;-88
2023/06/18 12:02:11;;;;;;;;;6.50;6.00;;;;;;;;4947546;28;45470;-86
2023/06/18 12:04:36;;;;;;;;;8.25;5.25;;;;;;;;4948142;28;45454;-85
2023/06/18 12:07:04;;;;;;;;;6.00;5.00;;;;;;;;4957034;28;45328;-87
2023/06/18 12:09:33;;;;;;;;;8.25;8.00;;;;;;;;4957283;28;45448;-86
2023/06/18 12:12:15;;;;;;;;;12.50;7.75;;;;;;;;4958331;28;45354;-87
2023/06/18 12:14:43;;;;;;;;;10.75;5.25;;;;;;;;4953850;28;47468;-86
2023/06/18 12:17:17;;;;;;;;;5.50;2.75;;;;;;;;4950312;28;45474;-86
2023/06/18 12:19:45;;;;;;;;;9.75;5.75;;;;;;;;4942870;28;45432;-86
2023/06/18 12:22:10;;;;;;;;;5.75;5.50;;;;;;;;4943141;28;45513;-86
2023/06/18 12:24:36;;;;;;;;;8.00;5.00;;;;;;;;4957769;28;46434;-86
2023/06/18 12:27:02;;;;;;;;;9.25;5.00;;;;;;;;4951587;28;45394;-86
2023/06/18 12:29:28;;;;;;;;;11.00;6.00;;;;;;;;4941444;28;45392;-86
2023/06/18 12:32:01;;;;;;;;;9.25;6.25;;;;;;;;4943566;28;45496;-86
2023/06/18 13:02:19;;;;;;;;;3.00;2.50;;;;;;;;5400418;22;45541;-91
2023/06/18 13:05:27;;;;;;;;;;;;;;;;;;;;;
2023/06/18 13:25:39;;;;;;;;;;;;;;;;;;;;;
2023/06/18 13:31:32;;;;;;;;;6.75;3.00;;;;;;;;4958411;28;45471;-94
2023/06/18 13:40:58;;;;;;;;;;;;;;;;;;;;;
2023/06/18 13:43:36;;;;;;;;;5.00;3.00;;;;;;;;4803459;29;70650;-94
2023/06/18 13:46:16;;;;;;;;;4.00;4.00;;;;;;;;4873618;28;45614;-91
2023/06/18 13:52:29;;;;;;;;;;;;;;;;;;;;;
2023/06/18 13:55:12;;;;;;;;;2.50;2.50;;;;;;;;4905692;28;69499;-94
2023/06/18 14:00:41;;;;;;;;;4.50;3.50;;;;;;;;4934536;23;46043;-87
2023/06/18 14:03:06;;;;;;;;;3.00;3.00;;;;;;;;4956302;28;45355;-89
2023/06/18 14:05:35;;;;;;;;;3.33;2.00;;;;;;;;4930115;28;45547;-90
2023/06/18 14:08:00;;;;;;;;;6.00;3.00;;;;;;;;4956670;28;45379;-88
2023/06/18 14:10:26;;;;;;;;;2.00;2.00;;;;;;;;4955434;28;45426;-88
2023/06/18 14:12:51;;;;;;;;;4.33;2.67;;;;;;;;4938785;28;45481;-90
2023/06/18 14:15:26;;;;;;;;;4.67;2.67;;;;;;;;4956405;28;45541;-92
2023/06/18 14:18:10;;;;;;;;;;;;;;;;;;;;;
2023/06/18 14:20:44;;;;;;;;;2.75;2.50;;;;;;;;4950768;28;73924;-92
2023/06/18 14:23:09;;;;;;;;;3.25;3.00;;;;;;;;4943424;28;45516;-89
2023/06/18 14:25:34;;;;;;;;;6.75;3.00;;;;;;;;4944512;28;45439;-89
2023/06/18 14:28:00;;;;;;;;;3.75;3.50;;;;;;;;4920026;28;46372;-90
2023/06/18 14:30:25;;;;;;;;;5.25;4.00;;;;;;;;4952674;28;45395;-88
2023/06/18 14:32:51;;;;;;;;;2.67;2.67;;;;;;;;4957111;28;45346;-90
2023/06/18 14:35:16;;;;;;;;;1.75;1.75;;;;;;;;4948875;28;45826;-90
2023/06/18 14:37:44;;;;;;;;;3.00;1.00;;;;;;;;4948111;28;45781;-91
2023/06/18 14:40:09;;;;;;;;;3.50;1.25;;;;;;;;4941695;28;46054;-91
2023/06/18 14:42:37;;;;;;;;;3.25;1.25;;;;;;;;4937713;28;45390;-91
2023/06/18 14:45:02;;;;;;;;;3.50;2.00;;;;;;;;4953221;28;45470;-90
2023/06/18 14:47:28;;;;;;;;;2.50;0.50;;;;;;;;4947224;28;46824;-90
2023/06/18 14:49:55;;;;;;;;;1.00;1.00;;;;;;;;4932111;28;45469;-89
2023/06/18 14:52:21;;;;;;;;;2.00;1.75;;;;;;;;4951408;28;45511;-88
2023/06/18 14:54:46;;;;;;;;;2.00;1.00;;;;;;;;4955961;28;45351;-89
2023/06/18 14:57:12;;;;;;;;;0.00;0.00;;;;;;;;4955303;28;45642;-88
2023/06/18 14:59:38;;;;;;;;;1.50;0.00;;;;;;;;4941861;28;45986;-90
2023/06/18 15:02:03;;;;;;;;;1.75;0.75;;;;;;;;4951179;28;45580;-90
2023/06/18 15:04:32;;;;;;;;;0.00;0.00;;;;;;;;4953363;28;45409;-92
2023/06/18 15:06:57;;;;;;;;;1.25;0.00;;;;;;;;4950426;28;46664;-89
2023/06/18 15:09:43;;;;;;;;;1.33;0.00;;;;;;;;4945551;28;45364;-91
2023/06/18 15:12:11;;;;;;;;;0.00;0.00;;;;;;;;4941827;28;45563;-90
2023/06/18 15:14:37;;;;;;;;;0.00;0.00;;;;;;;;4952833;28;45376;-89
2023/06/18 15:17:02;;;;;;;;;0.00;0.00;;;;;;;;4949781;28;46122;-90
2023/06/18 15:19:43;;;;;;;;;0.00;0.00;;;;;;;;4936588;28;45550;-92
2023/06/18 15:22:13;;;;;;;;;0.00;0.00;;;;;;;;4937190;28;45298;-91
2023/06/18 15:24:39;;;;;;;;;0.00;0.00;;;;;;;;4949820;28;45398;-91
2023/06/18 15:29:57;;;;;;;;;0.50;0.50;;;;;;;;4945780;28;45202;-90
2023/06/18 15:32:26;;;;;;;;;0.25;0.00;;;;;;;;4955556;28;45468;-88
2023/06/18 15:34:53;;;;;;;;;1.00;1.00;;;;;;;;4956395;28;45465;-88
2023/06/18 15:37:19;;;;;;;;;0.00;0.00;;;;;;;;4937665;28;48434;-88
2023/06/18 15:39:47;;;;;;;;;3.00;1.00;;;;;;;;4949213;28;45467;-89
2023/06/18 15:42:13;;;;;;;;;1.75;1.50;;;;;;;;4960387;28;45409;-82
2023/06/18 15:44:38;;;;;;;;;1.75;0.00;;;;;;;;4940071;28;45304;-83
2023/06/18 15:47:03;;;;;;;;;1.00;1.00;;;;;;;;4934622;28;47723;-82
2023/06/18 15:49:29;;;;;;;;;0.33;0.33;;;;;;;;4948872;28;45396;-81
2023/06/18 15:51:54;;;;;;;;;2.00;0.00;;;;;;;;4939172;28;45341;-82
2023/06/18 15:54:19;;;;;;;;;0.00;0.00;;;;;;;;4952064;28;46662;-83
2023/06/18 15:56:44;;;;;;;;;1.00;0.00;;;;;;;;4957992;28;46467;-84
2023/06/18 15:59:10;;;;;;;;;4.00;1.00;;;;;;;;4956383;28;45595;-84
2023/06/18 16:01:35;;;;;;;;;3.75;1.00;;;;;;;;4956347;28;45514;-87
2023/06/18 16:04:00;;;;;;;;;3.00;0.00;;;;;;;;4951171;28;45560;-80
2023/06/18 16:06:25;;;;;;;;;1.67;0.33;;;;;;;;4957509;28;46414;-82
2023/06/18 16:08:51;;;;;;;;;0.00;0.00;;;;;;;;4957604;28;45477;-81
2023/06/18 16:11:16;;;;;;;;;3.67;0.33;;;;;;;;4950833;28;45810;-84
2023/06/18 16:13:41;;;;;;;;;1.00;1.00;;;;;;;;4954902;28;45446;-81
2023/06/18 16:16:06;;;;;;;;;1.00;1.00;;;;;;;;4946728;28;46038;-81
2023/06/18 16:18:32;;;;;;;;;1.00;0.75;;;;;;;;4952371;28;45359;-81
2023/06/18 16:20:57;;;;;;;;;2.00;0.33;;;;;;;;4954175;28;45375;-81
2023/06/18 16:23:22;;;;;;;;;2.67;1.00;;;;;;;;4949634;28;45439;-82
2023/06/18 16:25:47;;;;;;;;;1.67;1.00;;;;;;;;4941756;28;46543;-82
2023/06/18 16:28:12;;;;;;;;;0.00;0.00;;;;;;;;4956947;28;45431;-84